< < Back
Terminal Aerodrome Forecast


Current Version              Previous Versions:   1  2  3  4  5  6  7  8  9  

Terminal Aerodrome Forecast

276
FTUS42 KGSP 051728
TAFHKY
TAF
KHKY 051728Z 0518/0618 32010KT P6SM VCSH BKN070
      TEMPO 0522/0602 4SM -SHRA OVC040
     FM060200 31004KT P6SM -SHRA OVC045
     FM060600 31006KT P6SM VCSH SCT040 OVC060
     FM061500 34010G16KT P6SM BKN070=

Latest METAR

311
SAUS70 KWBC 051756
MTRHKY
METAR KHKY 051753Z 33011G20KT 10SM FEW060 16/01 A2964 RMK AO2 SLP021
T01560011 10167 20106 58002


USA.gov is the U.S. government's official web portal to all federal, state and local government web resources and services.